createdAt,value
2023-04-15T00:00:04.162Z,55.32
2023-04-15T00:02:42.579Z,55.03
2023-04-15T00:05:10.953Z,54.95
2023-04-15T00:07:40.602Z,55.31
2023-04-15T00:10:11.353Z,55.14
2023-04-15T00:12:39.749Z,55.13
2023-04-15T00:15:09.252Z,55.01
2023-04-15T00:17:39.307Z,54.91
2023-04-15T00:20:08.560Z,54.83
2023-04-15T00:22:39.056Z,55.13
2023-04-15T00:25:09.515Z,55.13
2023-04-15T00:27:39.416Z,54.81
2023-04-15T00:30:09.363Z,55.17
2023-04-15T00:32:37.309Z,54.78
2023-04-15T00:35:05.785Z,54.89
2023-04-15T00:37:35.171Z,55.10
2023-04-15T00:40:05.933Z,55.23
2023-04-15T00:42:37.058Z,55.01
2023-04-15T00:45:07.408Z,55.17
2023-04-15T00:47:38.218Z,54.85
2023-04-15T00:50:07.320Z,55.12
2023-04-15T00:52:38.215Z,55.19
2023-04-15T00:55:08.037Z,54.67
2023-04-15T00:57:37.533Z,54.91
2023-04-15T01:00:10.681Z,55.05
2023-04-15T01:02:41.028Z,55.94
2023-04-15T01:05:09.748Z,55.47
2023-04-15T01:07:37.654Z,55.78
2023-04-15T01:10:06.202Z,56.01
2023-04-15T01:12:34.786Z,56.31
2023-04-15T01:15:02.796Z,56.09
2023-04-15T01:17:32.879Z,56.02
2023-04-15T01:20:01.748Z,56.10
2023-04-15T01:22:33.359Z,55.84
2023-04-15T01:25:06.255Z,56.07
2023-04-15T01:27:36.827Z,56.06
2023-04-15T01:30:06.880Z,55.73
2023-04-15T01:32:36.422Z,55.82
2023-04-15T01:35:04.987Z,56.23
2023-04-15T01:37:32.965Z,55.95
2023-04-15T01:40:00.956Z,56.17
2023-04-15T01:42:28.900Z,56.01
2023-04-15T01:44:58.251Z,56.02
2023-04-15T01:47:27.144Z,55.98
2023-04-15T01:49:57.026Z,56.01
2023-04-15T01:52:25.678Z,55.78
2023-04-15T01:54:56.111Z,56.31
2023-04-15T01:57:24.445Z,56.16
2023-04-15T01:59:53.027Z,56.52
2023-04-15T02:02:24.944Z,56.70
2023-04-15T02:04:56.321Z,57.05
2023-04-15T02:07:25.461Z,57.33
2023-04-15T02:09:53.452Z,57.59
2023-04-15T02:12:21.411Z,57.81
2023-04-15T02:14:50.854Z,57.83
2023-04-15T02:17:19.480Z,58.02
2023-04-15T02:19:52.018Z,58.30
2023-04-15T02:22:20.185Z,57.96
2023-04-15T02:24:48.374Z,58.10
2023-04-15T02:27:19.391Z,58.63
2023-04-15T02:29:47.389Z,58.62
2023-04-15T02:32:16.910Z,58.73
2023-04-15T02:34:44.972Z,58.98
2023-04-15T02:37:14.747Z,58.63
2023-04-15T02:39:42.775Z,58.53
2023-04-15T02:42:11.512Z,58.48
2023-04-15T02:44:40.719Z,58.75
2023-04-15T02:47:12.495Z,58.72
2023-04-15T02:49:41.309Z,59.04
2023-04-15T02:52:10.240Z,59.02
2023-04-15T02:54:39.771Z,59.54
2023-04-15T02:57:09.015Z,59.37
2023-04-15T02:59:41.582Z,59.53
2023-04-15T03:02:10.352Z,59.52
2023-04-15T03:04:39.878Z,59.48
2023-04-15T03:07:10.048Z,59.57
2023-04-15T03:09:40.498Z,59.75
2023-04-15T03:12:08.780Z,59.52
2023-04-15T03:14:40.154Z,59.38
2023-04-15T03:17:08.630Z,59.58
2023-04-15T03:19:36.899Z,59.52
2023-04-15T03:22:07.115Z,59.55
2023-04-15T03:24:35.048Z,59.33
2023-04-15T03:27:06.363Z,59.41
2023-04-15T03:29:35.730Z,59.41
2023-04-15T03:32:04.340Z,59.74
2023-04-15T03:34:38.216Z,59.32
2023-04-15T03:37:06.804Z,59.45
2023-04-15T03:39:35.156Z,59.77
2023-04-15T03:42:07.146Z,59.29
2023-04-15T03:44:37.545Z,59.31
2023-04-15T03:47:05.503Z,59.12
2023-04-15T03:49:33.969Z,59.12
2023-04-15T03:52:01.916Z,58.96
2023-04-15T03:54:30.221Z,59.15
2023-04-15T03:56:58.432Z,58.96
2023-04-15T03:59:27.982Z,59.33
2023-04-15T04:01:58.613Z,59.62
2023-04-15T04:04:29.678Z,59.28
2023-04-15T04:06:57.652Z,59.47
2023-04-15T04:09:25.851Z,59.58
2023-04-15T04:11:53.992Z,59.55
2023-04-15T04:14:26.646Z,59.61
2023-04-15T04:16:56.704Z,58.95
2023-04-15T04:19:24.652Z,58.90
2023-04-15T04:21:54.202Z,59.01
2023-04-15T04:24:23.240Z,59.04
2023-04-15T04:26:53.936Z,58.84
2023-04-15T04:29:22.124Z,58.68
2023-04-15T04:31:50.158Z,59.25
2023-04-15T04:34:21.753Z,58.97
2023-04-15T04:36:49.761Z,59.28
2023-04-15T04:39:17.628Z,59.29
2023-04-15T04:41:45.912Z,59.15
2023-04-15T04:44:14.937Z,59.24
2023-04-15T04:46:44.025Z,59.06
2023-04-15T04:49:11.951Z,59.22
2023-04-15T04:51:43.443Z,59.35
2023-04-15T04:54:12.964Z,59.27
2023-04-15T04:56:42.407Z,59.58
2023-04-15T04:59:12.941Z,59.50
2023-04-15T05:01:41.016Z,59.58
2023-04-15T05:04:09.081Z,59.70
2023-04-15T05:06:37.494Z,59.66
2023-04-15T05:09:09.318Z,59.37
2023-04-15T05:11:37.980Z,59.56
2023-04-15T05:14:08.614Z,59.54
2023-04-15T05:16:36.664Z,59.31
2023-04-15T05:19:05.891Z,59.05
2023-04-15T05:21:33.872Z,59.13
2023-04-15T05:24:03.600Z,59.02
2023-04-15T05:26:34.025Z,59.00
2023-04-15T05:29:02.358Z,59.21
2023-04-15T05:31:31.947Z,59.22
2023-04-15T05:34:00.145Z,59.02
2023-04-15T05:36:28.699Z,59.08
2023-04-15T05:38:56.726Z,58.89
2023-04-15T05:41:24.695Z,58.96
2023-04-15T05:43:54.215Z,59.28
2023-04-15T05:46:24.676Z,58.90
2023-04-15T05:48:53.795Z,58.96
2023-04-15T05:51:22.688Z,59.17
2023-04-15T05:53:50.826Z,58.96
2023-04-15T05:56:21.452Z,58.58
2023-04-15T05:58:53.682Z,58.79
2023-04-15T06:01:29.408Z,58.89
2023-04-15T06:03:57.638Z,58.94
2023-04-15T06:06:25.664Z,58.82
2023-04-15T06:08:55.772Z,59.17
2023-04-15T06:11:23.675Z,59.21
2023-04-15T06:13:51.551Z,59.29
2023-04-15T06:16:19.763Z,59.30
2023-04-15T06:18:49.072Z,59.59
2023-04-15T06:21:17.018Z,59.59
2023-04-15T06:23:45.136Z,59.74
2023-04-15T06:26:13.058Z,60.10
2023-04-15T06:28:42.399Z,60.45
2023-04-15T06:31:10.752Z,60.23
2023-04-15T06:33:39.829Z,60.01
2023-04-15T06:36:09.567Z,59.96
2023-04-15T06:38:37.614Z,60.15
2023-04-15T06:41:05.910Z,60.05
2023-04-15T06:43:34.299Z,59.97
2023-04-15T06:46:03.015Z,60.23
2023-04-15T06:48:31.016Z,59.55
2023-04-15T06:50:59.272Z,59.75
2023-04-15T06:53:29.034Z,59.74
2023-04-15T06:55:58.393Z,59.48
2023-04-15T06:58:26.568Z,59.45
2023-04-15T07:00:54.611Z,59.82
2023-04-15T07:03:23.842Z,59.94
2023-04-15T07:05:52.075Z,59.57
2023-04-15T07:08:20.495Z,59.83
2023-04-15T07:10:49.791Z,59.83
2023-04-15T07:13:18.439Z,59.50
2023-04-15T07:15:46.484Z,59.61
2023-04-15T07:18:14.469Z,59.49
2023-04-15T07:20:42.407Z,59.29
2023-04-15T07:23:13.451Z,59.16
2023-04-15T07:25:45.847Z,58.88
2023-04-15T07:28:16.651Z,58.91
2023-04-15T07:30:46.272Z,58.80
2023-04-15T07:33:15.859Z,58.28
2023-04-15T07:35:43.966Z,58.14
2023-04-15T07:38:13.539Z,57.95
2023-04-15T07:40:42.429Z,57.65
2023-04-15T07:43:10.854Z,57.48
2023-04-15T07:45:41.319Z,57.71
2023-04-15T07:48:09.755Z,57.15
2023-04-15T07:50:38.126Z,56.95
2023-04-15T07:53:08.335Z,56.99
2023-04-15T07:55:36.286Z,57.00
2023-04-15T07:58:04.477Z,57.05
2023-04-15T08:00:32.551Z,56.81
2023-04-15T08:03:02.363Z,56.27
2023-04-15T08:05:30.559Z,56.15
2023-04-15T08:07:58.686Z,55.63
2023-04-15T08:10:26.597Z,55.52
2023-04-15T08:12:54.965Z,55.45
2023-04-15T08:15:23.520Z,55.02
2023-04-15T08:17:51.593Z,54.58
2023-04-15T08:20:21.232Z,54.19
2023-04-15T08:22:51.990Z,54.22
2023-04-15T08:25:20.294Z,54.34
2023-04-15T08:27:48.348Z,54.27
2023-04-15T08:30:16.482Z,53.56
2023-04-15T08:32:46.288Z,53.41
2023-04-15T08:35:14.520Z,52.91
2023-04-15T08:37:43.906Z,52.95
2023-04-15T08:42:56.759Z,52.51
2023-04-15T08:45:25.183Z,52.48
2023-04-15T08:47:55.830Z,52.46
2023-04-15T08:50:24.550Z,52.12
2023-04-15T08:52:56.476Z,51.47
2023-04-15T08:55:27.824Z,51.28
2023-04-15T08:57:56.094Z,51.44
2023-04-15T09:00:25.010Z,50.98
2023-04-15T09:02:53.808Z,50.95
2023-04-15T09:05:25.262Z,50.40
2023-04-15T09:07:56.238Z,50.39
2023-04-15T09:10:25.652Z,50.28
2023-04-15T09:12:54.654Z,50.13
2023-04-15T09:15:23.858Z,50.04
2023-04-15T09:17:52.100Z,49.88
2023-04-15T09:20:21.785Z,49.58
2023-04-15T09:22:52.016Z,49.24
2023-04-15T09:25:35.052Z,49.09
2023-04-15T09:28:03.866Z,48.80
2023-04-15T09:30:32.622Z,49.15
2023-04-15T09:33:02.272Z,49.23
2023-04-15T09:35:30.376Z,49.37
2023-04-15T09:38:05.145Z,49.45
2023-04-15T09:40:36.853Z,49.71
2023-04-15T09:43:05.226Z,49.37
2023-04-15T09:45:34.008Z,49.16
2023-04-15T09:48:19.655Z,49.09
2023-04-15T09:50:48.948Z,48.75
2023-04-15T09:53:20.867Z,48.72
2023-04-15T09:55:52.429Z,47.77
2023-04-15T09:58:24.166Z,47.82
2023-04-15T10:00:53.039Z,47.76
2023-04-15T10:03:23.854Z,47.00
2023-04-15T10:05:54.228Z,46.45
2023-04-15T10:08:26.207Z,46.85
2023-04-15T10:10:58.725Z,46.56
2023-04-15T10:13:28.810Z,46.73
2023-04-15T10:16:00.225Z,46.73
2023-04-15T10:18:31.791Z,46.66
2023-04-15T10:20:59.819Z,46.89
2023-04-15T10:23:27.989Z,47.14
2023-04-15T10:25:57.378Z,47.60
2023-04-15T10:28:26.870Z,47.95
2023-04-15T10:30:54.973Z,48.15
2023-04-15T10:33:25.004Z,47.58
2023-04-15T10:35:53.906Z,47.30
2023-04-15T10:38:38.714Z,47.61
2023-04-15T10:41:21.552Z,47.52
2023-04-15T10:43:54.645Z,46.89
2023-04-15T10:46:25.733Z,46.35
2023-04-15T10:48:56.234Z,45.96
2023-04-15T10:51:33.426Z,45.68
2023-04-15T10:54:02.221Z,44.53
2023-04-15T10:56:33.048Z,45.14
2023-04-15T10:59:03.447Z,45.36
2023-04-15T11:01:54.288Z,44.55
2023-04-15T11:04:54.423Z,44.13
2023-04-15T11:07:36.209Z,42.62
2023-04-15T11:10:04.865Z,42.53
2023-04-15T11:12:36.362Z,42.86
2023-04-15T11:15:31.073Z,42.51
2023-04-15T11:17:59.590Z,42.65
2023-04-15T11:20:29.994Z,42.57
2023-04-15T11:23:14.097Z,42.07
2023-04-15T11:25:43.630Z,41.40
2023-04-15T11:28:12.457Z,41.67
2023-04-15T11:30:42.186Z,42.22
2023-04-15T11:33:12.313Z,42.08
2023-04-15T11:35:41.907Z,41.33
2023-04-15T11:38:11.643Z,41.28
2023-04-15T11:40:41.031Z,41.51
2023-04-15T11:43:09.732Z,41.74
2023-04-15T11:45:38.422Z,42.09
2023-04-15T11:48:13.065Z,41.11
2023-04-15T11:50:41.758Z,39.69
2023-04-15T11:53:10.960Z,39.48
2023-04-15T11:55:46.368Z,39.16
2023-04-15T11:58:17.264Z,39.66
2023-04-15T12:00:52.461Z,39.24
2023-04-15T12:03:28.665Z,38.72
2023-04-15T12:06:23.149Z,38.67
2023-04-15T12:09:20.347Z,38.62
2023-04-15T12:11:49.921Z,38.15
2023-04-15T12:14:22.705Z,37.60
2023-04-15T12:16:54.074Z,35.87
2023-04-15T12:19:28.733Z,36.00
2023-04-15T12:22:00.884Z,36.46
2023-04-15T12:24:29.329Z,36.31
2023-04-15T12:26:58.359Z,36.05
2023-04-15T12:29:28.655Z,36.00
2023-04-15T12:31:58.535Z,37.38
2023-04-15T12:34:32.196Z,38.32
2023-04-15T12:37:00.914Z,37.92
2023-04-15T12:39:30.806Z,36.84
2023-04-15T12:41:59.466Z,36.79
2023-04-15T12:44:28.016Z,36.53
2023-04-15T12:46:56.226Z,35.82
2023-04-15T12:49:24.527Z,35.51
2023-04-15T12:51:55.656Z,35.97
2023-04-15T12:54:24.884Z,35.92
2023-04-15T12:56:53.195Z,35.97
2023-04-15T12:59:21.318Z,35.97
2023-04-15T13:01:49.730Z,36.30
2023-04-15T13:04:18.145Z,36.30
2023-04-15T13:09:22.737Z,35.54
2023-04-15T13:11:52.770Z,34.30
2023-04-15T13:14:21.049Z,33.27
2023-04-15T13:16:49.850Z,33.68
2023-04-15T13:19:19.008Z,32.87
2023-04-15T13:21:50.406Z,32.52
2023-04-15T13:24:19.930Z,32.74
2023-04-15T13:26:50.347Z,32.64
2023-04-15T13:29:18.859Z,32.17
2023-04-15T13:31:47.446Z,33.14
2023-04-15T13:34:16.058Z,32.22
2023-04-15T13:36:44.059Z,32.14
2023-04-15T13:39:12.087Z,31.92
2023-04-15T13:41:41.489Z,31.41
2023-04-15T13:44:09.492Z,31.94
2023-04-15T13:46:37.902Z,32.69
2023-04-15T13:49:06.084Z,33.05
2023-04-15T13:51:36.375Z,33.47
2023-04-15T13:54:04.596Z,33.79
2023-04-15T13:56:33.059Z,33.52
2023-04-15T13:59:06.698Z,33.88
2023-04-15T14:01:35.234Z,34.24
2023-04-15T14:04:03.621Z,34.04
2023-04-15T14:06:32.256Z,34.57
2023-04-15T14:09:00.699Z,34.26
2023-04-15T14:11:31.057Z,33.87
2023-04-15T14:13:59.264Z,33.65
2023-04-15T14:16:33.620Z,33.83
2023-04-15T14:19:02.411Z,34.47
2023-04-15T14:21:32.840Z,34.92
2023-04-15T14:24:02.214Z,34.77
2023-04-15T14:26:30.526Z,34.52
2023-04-15T14:28:58.430Z,34.80
2023-04-15T14:31:26.472Z,34.31
2023-04-15T14:33:56.018Z,33.88
2023-04-15T14:36:24.346Z,34.12
2023-04-15T14:38:52.537Z,34.10
2023-04-15T14:41:20.884Z,33.49
2023-04-15T14:43:48.843Z,33.30
2023-04-15T14:46:16.868Z,33.82
2023-04-15T14:48:44.941Z,33.42
2023-04-15T14:51:14.356Z,33.64
2023-04-15T14:53:42.774Z,33.17
2023-04-15T14:56:11.000Z,33.88
2023-04-15T14:58:39.721Z,33.84
2023-04-15T15:01:07.874Z,35.37
2023-04-15T15:03:36.362Z,35.54
2023-04-15T15:06:04.681Z,35.37
2023-04-15T15:08:37.146Z,36.40
2023-04-15T15:11:05.454Z,35.90
2023-04-15T15:13:33.795Z,35.38
2023-04-15T15:16:04.998Z,35.54
2023-04-15T15:18:33.273Z,34.48
2023-04-15T15:21:02.439Z,34.52
2023-04-15T15:23:30.595Z,34.84
2023-04-15T15:26:04.765Z,34.84
2023-04-15T15:28:36.276Z,35.56
2023-04-15T15:31:06.986Z,35.87
2023-04-15T15:33:34.965Z,35.69
2023-04-15T15:36:02.880Z,34.89
2023-04-15T15:38:30.918Z,34.54
2023-04-15T15:41:00.441Z,34.91
2023-04-15T15:43:28.586Z,34.69
2023-04-15T15:45:56.548Z,34.90
2023-04-15T15:48:25.283Z,35.55
2023-04-15T15:50:54.542Z,36.33
2023-04-15T15:53:27.336Z,37.21
2023-04-15T15:55:57.025Z,38.05
2023-04-15T15:58:26.482Z,38.82
2023-04-15T16:00:55.010Z,38.92
2023-04-15T16:03:23.971Z,39.48
2023-04-15T16:05:52.134Z,39.54
2023-04-15T16:08:25.871Z,39.66
2023-04-15T16:10:54.007Z,40.04
2023-04-15T16:13:22.834Z,39.84
2023-04-15T16:15:52.316Z,39.95
2023-04-15T16:18:21.679Z,40.07
2023-04-15T16:20:49.720Z,39.74
2023-04-15T16:23:17.746Z,39.72
2023-04-15T16:25:45.768Z,39.93
2023-04-15T16:28:25.706Z,39.63
2023-04-15T16:30:59.078Z,39.78
2023-04-15T16:33:27.537Z,40.09
2023-04-15T16:35:55.510Z,40.38
2023-04-15T16:38:24.291Z,40.27
2023-04-15T16:40:52.729Z,40.52
2023-04-15T16:43:21.374Z,40.30
2023-04-15T16:45:51.229Z,40.67
2023-04-15T16:48:21.144Z,41.22
2023-04-15T16:50:49.135Z,41.67
2023-04-15T16:53:17.118Z,41.92
2023-04-15T16:55:46.434Z,42.17
2023-04-15T16:58:14.472Z,42.69
2023-04-15T17:00:44.005Z,43.24
2023-04-15T17:03:12.156Z,43.45
2023-04-15T17:05:43.274Z,43.72
2023-04-15T17:08:11.287Z,43.94
2023-04-15T17:10:39.252Z,44.09
2023-04-15T17:13:07.541Z,44.56
2023-04-15T17:15:35.521Z,44.54
2023-04-15T17:18:03.759Z,44.48
2023-04-15T17:20:31.743Z,44.15
2023-04-15T17:23:01.420Z,43.99
2023-04-15T17:25:31.702Z,44.14
2023-04-15T17:27:59.651Z,44.20
2023-04-15T17:30:28.074Z,44.19
2023-04-15T17:32:56.121Z,43.85
2023-04-15T17:35:26.056Z,43.40
2023-04-15T17:37:54.109Z,43.55
2023-04-15T17:40:26.325Z,43.70
2023-04-15T17:42:54.864Z,44.23
2023-04-15T17:45:22.996Z,44.98
2023-04-15T17:47:51.139Z,44.94
2023-04-15T17:50:19.476Z,45.69
2023-04-15T17:52:48.436Z,45.75
2023-04-15T17:55:18.171Z,45.87
2023-04-15T17:57:47.990Z,46.25
2023-04-15T18:00:17.649Z,46.53
2023-04-15T18:02:46.040Z,46.80
2023-04-15T18:05:14.797Z,47.11
2023-04-15T18:07:44.622Z,47.23
2023-04-15T18:10:12.893Z,47.82
2023-04-15T18:12:40.846Z,47.74
2023-04-15T18:15:12.196Z,47.67
2023-04-15T18:17:40.160Z,47.87
2023-04-15T18:20:09.015Z,48.20
2023-04-15T18:22:37.269Z,48.20
2023-04-15T18:25:08.351Z,48.25
2023-04-15T18:27:39.278Z,48.62
2023-04-15T18:30:11.414Z,48.48
2023-04-15T18:32:39.839Z,48.60
2023-04-15T18:35:08.440Z,48.63
2023-04-15T18:37:37.047Z,48.60
2023-04-15T18:40:05.911Z,48.77
2023-04-15T18:42:33.923Z,48.57
2023-04-15T18:45:02.163Z,48.48
2023-04-15T18:47:31.516Z,48.97
2023-04-15T18:49:59.566Z,48.87
2023-04-15T18:52:29.790Z,48.90
2023-04-15T18:54:57.766Z,49.01
2023-04-15T18:57:31.138Z,49.00
2023-04-15T19:00:03.623Z,49.08
2023-04-15T19:02:33.083Z,49.21
2023-04-15T19:05:04.209Z,49.11
2023-04-15T19:07:32.322Z,49.18
2023-04-15T19:10:00.510Z,48.81
2023-04-15T19:12:28.801Z,48.89
2023-04-15T19:14:59.305Z,48.88
2023-04-15T19:17:27.702Z,49.16
2023-04-15T19:19:57.249Z,49.26
2023-04-15T19:22:25.249Z,49.39
2023-04-15T19:24:54.103Z,49.62
2023-04-15T19:27:23.647Z,49.76
2023-04-15T19:29:51.745Z,49.59
2023-04-15T19:32:19.706Z,49.70
2023-04-15T19:34:47.682Z,49.74
2023-04-15T19:37:17.218Z,49.82
2023-04-15T19:39:45.194Z,49.78
2023-04-15T19:42:13.129Z,49.77
2023-04-15T19:44:43.241Z,49.84
2023-04-15T19:47:11.222Z,50.04
2023-04-15T19:49:39.279Z,49.89
2023-04-15T19:52:07.290Z,50.01
2023-04-15T19:54:37.131Z,49.89
2023-04-15T19:57:05.463Z,50.23
2023-04-15T19:59:38.331Z,50.02
2023-04-15T20:02:06.466Z,49.93
2023-04-15T20:04:34.841Z,49.97
2023-04-15T20:07:05.207Z,50.25
2023-04-15T20:09:34.643Z,50.13
2023-04-15T20:12:48.309Z,50.51
2023-04-15T20:14:53.464Z,50.54
2023-04-15T20:17:21.426Z,50.53
2023-04-15T20:19:49.585Z,50.57
2023-04-15T20:22:17.561Z,50.50
2023-04-15T20:24:45.678Z,50.91
2023-04-15T20:27:15.143Z,50.85
2023-04-15T20:29:43.148Z,50.87
2023-04-15T20:32:11.644Z,50.90
2023-04-15T20:34:41.413Z,50.93
2023-04-15T20:37:09.425Z,50.88
2023-04-15T20:39:40.787Z,50.89
2023-04-15T20:42:14.729Z,50.86
2023-04-15T20:44:44.087Z,50.89
2023-04-15T20:47:12.517Z,50.84
2023-04-15T20:49:41.197Z,50.83
2023-04-15T20:52:09.139Z,50.85
2023-04-15T20:54:38.793Z,50.88
2023-04-15T20:57:06.858Z,50.90
2023-04-15T20:59:36.030Z,50.99
2023-04-15T21:02:05.628Z,50.94
2023-04-15T21:04:37.962Z,50.80
2023-04-15T21:07:06.056Z,51.02
2023-04-15T21:09:34.447Z,51.08
2023-04-15T21:12:03.523Z,51.13
2023-04-15T21:14:32.620Z,51.08
2023-04-15T21:17:03.535Z,51.26
2023-04-15T21:19:34.354Z,51.13
2023-04-15T21:22:02.404Z,51.20
2023-04-15T21:24:30.301Z,51.29
2023-04-15T21:26:58.542Z,51.24
2023-04-15T21:29:27.943Z,51.28
2023-04-15T21:31:56.038Z,51.19
2023-04-15T21:34:24.817Z,51.31
2023-04-15T21:36:54.295Z,51.25
2023-04-15T21:39:22.610Z,51.33
2023-04-15T21:41:51.940Z,51.31
2023-04-15T21:44:21.784Z,51.43
2023-04-15T21:46:51.685Z,51.56
2023-04-15T21:49:24.889Z,51.70
2023-04-15T21:51:56.116Z,51.51
2023-04-15T21:54:24.349Z,51.64
2023-04-15T21:56:52.387Z,51.71
2023-04-15T21:59:20.697Z,51.70
2023-04-15T22:01:48.958Z,51.87
2023-04-15T22:04:17.987Z,51.76
2023-04-15T22:06:46.419Z,51.74
2023-04-15T22:09:17.774Z,51.98
2023-04-15T22:11:47.273Z,51.91
2023-04-15T22:14:15.492Z,51.97
2023-04-15T22:16:44.351Z,51.88
2023-04-15T22:19:12.423Z,51.90
2023-04-15T22:21:40.423Z,51.89
2023-04-15T22:24:38.888Z,51.92
2023-04-15T22:26:59.042Z,51.91
2023-04-15T22:29:27.048Z,51.99
2023-04-15T22:31:55.109Z,51.92
2023-04-15T22:34:23.354Z,51.90
2023-04-15T22:36:51.449Z,51.78
2023-04-15T22:39:19.555Z,51.80
2023-04-15T22:41:47.574Z,51.86
2023-04-15T22:44:17.305Z,51.69
2023-04-15T22:46:45.386Z,51.69
2023-04-15T22:49:13.384Z,51.61
2023-04-15T22:51:41.352Z,51.70
2023-04-15T22:54:09.481Z,51.67
2023-04-15T22:56:37.467Z,51.63
2023-04-15T22:59:05.559Z,51.47
2023-04-15T23:01:34.934Z,51.55
2023-04-15T23:04:07.113Z,51.69
2023-04-15T23:06:37.943Z,51.78
2023-04-15T23:09:05.925Z,51.79
2023-04-15T23:11:33.947Z,51.72
2023-04-15T23:14:01.995Z,51.76
2023-04-15T23:16:29.997Z,51.77
2023-04-15T23:18:59.586Z,51.99
2023-04-15T23:21:28.463Z,51.97
2023-04-15T23:23:56.476Z,51.98
2023-04-15T23:26:24.861Z,52.04
2023-04-15T23:28:53.212Z,51.97
2023-04-15T23:31:24.186Z,51.94
2023-04-15T23:33:52.242Z,52.05
2023-04-15T23:36:21.614Z,52.00
2023-04-15T23:38:49.675Z,51.90
2023-04-15T23:41:19.269Z,51.96
2023-04-15T23:43:47.297Z,51.76
2023-04-15T23:46:16.922Z,51.88
2023-04-15T23:48:49.836Z,51.76
2023-04-15T23:51:19.115Z,51.59
2023-04-15T23:53:52.388Z,51.60
2023-04-15T23:56:20.874Z,51.69
2023-04-15T23:58:48.892Z,51.66
